Monte Buey, Argentina
Current Conditions -  °F | °C
As of 10:00 PM on Tuesday 21 Oct 2014 (Local Time) from SAAR Reporting Station
Clear Clear  
Wind Chill: 20°   Ceiling: Unl
Heat Index: 20°   Visibility: 6mi
Dew Point:   Wind: 7mph
Humidity: 49%   Direction: 20°NNE
Pressure: 30"   Gusts: NA
Location:  32.92°S, 62.45°W
Report Text: SAAR 220100Z 02006KT CAVOK 20/09 Q1016
Loading
Personal Weather Stations






























Interactive Weather Map
Tropical Storm Tracking
New forecast layout! Learn more

10-Day Weather Forecast

Advertisements
Track Severe Weather on mobile